Time;durP1;ratioP1;P1;durP2;ratioP2;P2;SDS_P1;SDS_P2;PMS_P1;PMS_P2;Temp;Humidity;BMP_temperature;BMP_pressure;BME280_temperature;BME280_humidity;BME280_pressure;Samples;Min_cycle;Max_cycle;Signal;HPM_P1;HPM_P2
2021/07/06 00:01:12;;;;;;;5.47;3.47;;;17.00;99.90;;;;;;5050785;28;20481;-71
2021/07/06 00:03:38;;;;;;;6.88;3.42;;;17.00;99.90;;;;;;5050771;28;20803;-70
2021/07/06 00:06:03;;;;;;;4.97;3.83;;;16.90;99.90;;;;;;5050235;28;20516;-70
2021/07/06 00:08:29;;;;;;;4.28;3.33;;;16.90;99.90;;;;;;5049651;28;20033;-70
2021/07/06 00:10:55;;;;;;;6.35;2.97;;;16.80;99.90;;;;;;5050424;28;20382;-70
2021/07/06 00:13:20;;;;;;;5.88;3.35;;;16.80;99.90;;;;;;5049829;28;20037;-70
2021/07/06 00:15:48;;;;;;;4.97;3.00;;;16.80;99.90;;;;;;5050341;28;20035;-70
2021/07/06 00:18:13;;;;;;;4.88;2.67;;;16.80;99.90;;;;;;5053047;28;20471;-70
2021/07/06 00:20:39;;;;;;;2.72;2.15;;;16.80;99.90;;;;;;5053836;28;20112;-70
2021/07/06 00:23:05;;;;;;;5.15;2.47;;;16.80;99.90;;;;;;5054355;28;20056;-70
2021/07/06 00:25:31;;;;;;;4.53;2.55;;;16.80;99.90;;;;;;5052874;28;20044;-68
2021/07/06 00:27:57;;;;;;;2.85;2.03;;;16.80;99.90;;;;;;5053993;28;20036;-67
2021/07/06 00:30:24;;;;;;;4.07;2.50;;;16.70;99.90;;;;;;5053388;28;20029;-68
2021/07/06 00:32:51;;;;;;;4.68;2.80;;;16.70;99.90;;;;;;5053844;28;20057;-67
2021/07/06 00:35:17;;;;;;;3.97;2.30;;;16.70;99.90;;;;;;5053321;28;20032;-68
2021/07/06 00:37:43;;;;;;;3.83;2.30;;;16.70;99.90;;;;;;5053300;28;20094;-67
2021/07/06 00:40:10;;;;;;;4.78;2.42;;;16.70;99.90;;;;;;5053779;28;20463;-67
2021/07/06 00:42:43;;;;;;;3.72;2.05;;;16.80;99.90;;;;;;5052904;28;20036;-67
2021/07/06 00:45:11;;;;;;;5.15;1.70;;;16.80;99.90;;;;;;5053332;28;20487;-67
2021/07/06 00:47:38;;;;;;;2.38;1.70;;;16.80;99.90;;;;;;5052883;28;20665;-67
2021/07/06 00:50:17;;;;;;;3.58;1.70;;;16.90;99.90;;;;;;5053671;28;20033;-67
2021/07/06 00:52:42;;;;;;;2.47;1.50;;;17.00;99.90;;;;;;5052756;28;20024;-67
2021/07/06 00:55:09;;;;;;;5.18;2.10;;;17.00;99.90;;;;;;5053013;28;20505;-67
2021/07/06 00:57:35;;;;;;;7.45;1.90;;;17.10;99.90;;;;;;5044436;28;20037;-68
2021/07/06 01:00:08;;;;;;;1.90;1.80;;;17.20;99.90;;;;;;5053618;28;20112;-67
2021/07/06 01:02:34;;;;;;;2.95;1.65;;;17.20;99.90;;;;;;5052493;28;20041;-67
2021/07/06 01:05:00;;;;;;;5.35;1.60;;;17.30;99.90;;;;;;5053033;28;20034;-67
2021/07/06 01:07:26;;;;;;;3.13;1.50;;;17.40;99.90;;;;;;5052589;28;20124;-67
2021/07/06 01:09:51;;;;;;;3.17;1.90;;;17.40;99.90;;;;;;5053154;28;20119;-67
2021/07/06 01:12:17;;;;;;;2.95;1.60;;;17.50;99.90;;;;;;5053121;28;20035;-67
2021/07/06 01:14:44;;;;;;;3.70;1.48;;;17.50;99.90;;;;;;5051167;28;20025;-67
2021/07/06 01:17:10;;;;;;;1.52;1.40;;;17.50;99.90;;;;;;5052777;28;20457;-67
2021/07/06 01:19:37;;;;;;;4.97;1.75;;;17.50;99.90;;;;;;5051393;28;20406;-67
2021/07/06 01:22:06;;;;;;;2.08;1.70;;;17.50;99.90;;;;;;5053192;28;20040;-67
2021/07/06 01:24:36;;;;;;;3.50;1.77;;;17.50;99.90;;;;;;5051867;28;20028;-70
2021/07/06 01:27:02;;;;;;;3.53;2.08;;;17.50;99.90;;;;;;5052558;28;20040;-69
2021/07/06 01:29:28;;;;;;;3.58;1.70;;;17.50;99.90;;;;;;5051443;28;20078;-70
2021/07/06 01:31:54;;;;;;;4.35;1.65;;;17.60;99.90;;;;;;5052742;28;20104;-70
2021/07/06 01:34:19;;;;;;;2.35;1.55;;;17.60;99.90;;;;;;5052361;28;20033;-71
2021/07/06 01:36:45;;;;;;;2.65;1.50;;;17.60;99.90;;;;;;5052612;28;20048;-69
2021/07/06 01:39:11;;;;;;;4.45;1.33;;;17.50;99.90;;;;;;5052815;28;20366;-67
2021/07/06 01:41:39;;;;;;;3.08;1.80;;;17.50;99.90;;;;;;5051970;28;20032;-67
2021/07/06 01:44:20;;;;;;;1.83;1.40;;;17.50;99.90;;;;;;5052413;28;20029;-67
2021/07/06 01:46:46;;;;;;;4.35;2.00;;;17.40;99.90;;;;;;5052454;28;20036;-67
2021/07/06 01:49:13;;;;;;;3.70;1.92;;;17.40;99.90;;;;;;5052594;28;20033;-67
2021/07/06 01:51:40;;;;;;;3.33;2.20;;;17.40;99.90;;;;;;5051778;28;20465;-67
2021/07/06 01:54:06;;;;;;;2.40;2.20;;;17.30;99.90;;;;;;5051857;28;20418;-67
2021/07/06 01:56:39;;;;;;;2.22;1.90;;;17.20;99.90;;;;;;5051252;28;20025;-66
2021/07/06 01:59:05;;;;;;;2.28;2.08;;;17.20;99.90;;;;;;5052195;28;20060;-69
2021/07/06 02:01:31;;;;;;;3.90;2.08;;;17.10;99.90;;;;;;5051206;28;20106;-69
2021/07/06 02:03:56;;;;;;;2.10;1.90;;;17.00;99.90;;;;;;5051861;28;20089;-69
2021/07/06 02:06:22;;;;;;;2.92;2.22;;;16.90;99.90;;;;;;5051401;28;20045;-68
2021/07/06 02:08:48;;;;;;;5.28;2.35;;;16.80;99.90;;;;;;5050289;28;20091;-67
2021/07/06 02:11:13;;;;;;;2.25;1.88;;;16.70;99.90;;;;;;5051629;28;20031;-67
2021/07/06 02:13:39;;;;;;;2.30;2.00;;;16.60;99.90;;;;;;5050986;28;20228;-67
2021/07/06 02:16:05;;;;;;;2.15;1.58;;;16.50;99.90;;;;;;5051931;28;20032;-66
2021/07/06 02:18:32;;;;;;;2.25;1.85;;;16.50;99.90;;;;;;5051058;28;20025;-67
2021/07/06 02:20:59;;;;;;;3.13;1.98;;;16.40;99.90;;;;;;5052007;28;20112;-67
2021/07/06 02:23:26;;;;;;;3.88;1.92;;;16.40;99.90;;;;;;5050642;28;20025;-67
2021/07/06 02:25:53;;;;;;;2.30;1.80;;;16.40;99.90;;;;;;5051909;28;20125;-66
2021/07/06 02:28:19;;;;;;;4.40;1.60;;;16.30;99.90;;;;;;5051275;28;20090;-66
2021/07/06 02:30:45;;;;;;;2.47;1.90;;;16.30;99.90;;;;;;5049868;28;20037;-66
2021/07/06 02:33:10;;;;;;;2.00;1.80;;;16.20;99.90;;;;;;5050258;28;20039;-67
2021/07/06 02:35:36;;;;;;;1.92;1.63;;;16.10;99.90;;;;;;5050270;28;20061;-67
2021/07/06 02:38:03;;;;;;;2.63;1.70;;;16.10;99.90;;;;;;5051644;28;20029;-67
2021/07/06 02:40:29;;;;;;;3.85;1.73;;;16.00;99.90;;;;;;5048722;28;20029;-69
2021/07/06 02:42:56;;;;;;;2.15;1.67;;;16.00;99.90;;;;;;5051309;28;20513;-69
2021/07/06 02:45:22;;;;;;;2.00;1.80;;;15.90;99.90;;;;;;5050864;28;20060;-69
2021/07/06 02:47:48;;;;;;;1.70;1.58;;;15.80;99.90;;;;;;5051202;28;20431;-66
2021/07/06 02:50:15;;;;;;;2.22;2.00;;;15.80;99.90;;;;;;5051137;28;20474;-66
2021/07/06 02:52:41;;;;;;;2.28;1.92;;;15.80;99.90;;;;;;5050671;28;20040;-66
2021/07/06 02:55:07;;;;;;;3.10;1.60;;;15.80;99.90;;;;;;5051450;28;20052;-67
2021/07/06 03:00:06;;;;;;;1.60;1.50;;;15.70;99.90;;;;;;5049814;28;20052;-66
2021/07/06 03:02:31;;;;;;;2.60;1.98;;;15.70;99.90;;;;;;5050619;28;20078;-66
2021/07/06 03:04:57;;;;;;;3.20;1.60;;;15.70;99.90;;;;;;5051337;28;20037;-67
2021/07/06 03:07:22;;;;;;;3.38;2.00;;;15.60;99.90;;;;;;5050710;28;20456;-67
2021/07/06 03:09:48;;;;;;;2.13;1.92;;;15.60;99.90;;;;;;5050583;28;20017;-67
2021/07/06 03:12:14;;;;;;;1.67;1.58;;;15.60;99.90;;;;;;5051281;28;20029;-66
2021/07/06 03:14:39;;;;;;;1.85;1.70;;;15.60;99.90;;;;;;5050170;28;20033;-66
2021/07/06 03:17:05;;;;;;;3.05;2.00;;;15.60;99.90;;;;;;5051285;28;20471;-66
2021/07/06 03:19:32;;;;;;;2.50;1.70;;;15.50;99.90;;;;;;5049839;28;20029;-67
2021/07/06 03:21:57;;;;;;;2.70;2.25;;;15.50;99.90;;;;;;5051406;28;20029;-67
2021/07/06 03:24:23;;;;;;;2.10;1.80;;;15.50;99.90;;;;;;5050397;28;20051;-67
2021/07/06 03:26:48;;;;;;;2.03;1.80;;;15.50;99.90;;;;;;5050356;28;20029;-69
2021/07/06 03:29:14;;;;;;;2.05;1.83;;;15.50;99.90;;;;;;5050735;28;20493;-69
2021/07/06 03:31:40;;;;;;;3.63;2.20;;;15.50;99.90;;;;;;5050070;28;20025;-66
2021/07/06 03:34:05;;;;;;;2.25;1.90;;;15.50;99.90;;;;;;5050690;28;20029;-66
2021/07/06 03:36:31;;;;;;;1.88;1.77;;;15.50;99.90;;;;;;5050154;28;20436;-66
2021/07/06 03:38:56;;;;;;;4.93;2.22;;;15.60;99.90;;;;;;5050873;28;20450;-66
2021/07/06 03:41:22;;;;;;;2.65;1.83;;;15.70;99.90;;;;;;5050598;28;20029;-66
2021/07/06 03:43:48;;;;;;;4.78;1.90;;;15.80;99.90;;;;;;5050098;28;20035;-67
2021/07/06 03:46:13;;;;;;;2.13;1.60;;;15.80;99.90;;;;;;5050771;28;20474;-66
2021/07/06 03:48:39;;;;;;;2.00;1.60;;;15.90;99.90;;;;;;5049723;28;20056;-67
2021/07/06 03:51:04;;;;;;;2.83;1.70;;;16.00;99.90;;;;;;5050479;28;20033;-69
2021/07/06 03:53:30;;;;;;;3.50;1.73;;;16.00;99.90;;;;;;5053949;28;20020;-69
2021/07/06 03:55:56;;;;;;;2.20;2.00;;;16.00;99.90;;;;;;5054610;28;20033;-66
2021/07/06 03:58:21;;;;;;;2.55;1.95;;;16.00;99.90;;;;;;5054753;28;20388;-67
2021/07/06 04:00:47;;;;;;;2.05;1.70;;;16.10;99.90;;;;;;5053657;28;20341;-67
2021/07/06 04:03:12;;;;;;;2.10;1.88;;;16.10;99.90;;;;;;5054517;28;20057;-67
2021/07/06 04:05:38;;;;;;;1.77;1.67;;;16.10;99.90;;;;;;5053358;28;20084;-67
2021/07/06 04:08:04;;;;;;;1.90;1.80;;;16.20;99.90;;;;;;5054336;28;20056;-67
2021/07/06 04:10:30;;;;;;;2.40;2.15;;;16.20;99.90;;;;;;5053663;28;20025;-67
2021/07/06 04:12:56;;;;;;;1.88;1.77;;;16.20;99.90;;;;;;5054338;28;20029;-67
2021/07/06 04:15:21;;;;;;;2.20;1.63;;;16.20;99.90;;;;;;5053842;28;20032;-67
2021/07/06 04:17:48;;;;;;;1.73;1.63;;;16.30;99.90;;;;;;5053516;28;20035;-67
2021/07/06 04:20:14;;;;;;;2.95;1.85;;;16.30;99.90;;;;;;5054061;28;20078;-67
2021/07/06 04:22:41;;;;;;;2.33;1.50;;;16.40;99.90;;;;;;5053970;28;20025;-67
2021/07/06 04:25:07;;;;;;;3.47;1.60;;;16.50;99.90;;;;;;5054736;28;20037;-67
2021/07/06 04:27:33;;;;;;;1.70;1.60;;;16.60;99.90;;;;;;5053462;28;20124;-67
2021/07/06 04:29:59;;;;;;;1.50;1.40;;;16.60;99.90;;;;;;5053262;28;20113;-67
2021/07/06 04:32:25;;;;;;;2.58;1.60;;;16.70;99.90;;;;;;5053588;28;20075;-67
2021/07/06 04:34:50;;;;;;;1.33;1.23;;;16.80;99.90;;;;;;5052315;28;20025;-67
2021/07/06 04:37:17;;;;;;;1.90;1.42;;;16.90;99.90;;;;;;5052563;28;20044;-67
2021/07/06 04:39:42;;;;;;;4.40;1.65;;;17.00;99.90;;;;;;5051516;28;20485;-67
2021/07/06 04:42:12;;;;;;;3.45;2.50;;;17.10;99.90;;;;;;5052297;28;20033;-66
2021/07/06 04:44:38;;;;;;;9.93;2.77;;;17.20;99.90;;;;;;5051401;28;20025;-66
2021/07/06 04:47:03;;;;;;;4.03;2.53;;;17.20;99.90;;;;;;5052192;28;20648;-67
2021/07/06 04:49:29;;;;;;;4.18;2.65;;;17.30;99.90;;;;;;5049691;28;20039;-67
2021/07/06 04:51:55;;;;;;;7.10;2.60;;;17.40;99.90;;;;;;5052233;28;20040;-67
2021/07/06 04:54:23;;;;;;;5.00;2.13;;;17.50;99.90;;;;;;5048026;28;20192;-67
2021/07/06 04:56:51;;;;;;;4.82;1.80;;;17.60;99.90;;;;;;5052572;28;20033;-67
2021/07/06 04:59:17;;;;;;;5.13;1.85;;;17.80;99.90;;;;;;5052610;28;20041;-67
2021/07/06 05:01:42;;;;;;;3.63;1.70;;;18.00;99.90;;;;;;5051323;28;20052;-67
2021/07/06 05:04:08;;;;;;;2.03;1.40;;;18.30;99.90;;;;;;5050912;28;20067;-68
2021/07/06 05:06:34;;;;;;;1.73;1.13;;;18.50;99.90;;;;;;5051506;28;20044;-67
2021/07/06 05:09:00;;;;;;;2.83;1.27;;;18.70;99.90;;;;;;5051925;28;20037;-67
2021/07/06 05:11:25;;;;;;;2.50;1.30;;;18.90;99.90;;;;;;5051749;28;20571;-70
2021/07/06 05:13:51;;;;;;;2.72;1.25;;;19.00;99.90;;;;;;5051748;28;20052;-74
2021/07/06 05:16:17;;;;;;;2.05;1.33;;;19.10;99.90;;;;;;5051865;28;20033;-76
2021/07/06 05:18:42;;;;;;;2.70;1.73;;;19.10;99.90;;;;;;5050695;28;20021;-73
2021/07/06 05:21:08;;;;;;;4.90;2.47;;;19.10;99.90;;;;;;5051783;28;20100;-74
2021/07/06 05:23:34;;;;;;;4.10;2.40;;;19.00;99.90;;;;;;5051801;28;20513;-75
2021/07/06 05:26:00;;;;;;;9.75;2.58;;;19.00;99.90;;;;;;5052727;28;20043;-73
2021/07/06 05:28:26;;;;;;;4.85;2.92;;;18.80;99.90;;;;;;5052767;28;20104;-76
2021/07/06 05:30:52;;;;;;;8.90;3.00;;;18.80;99.90;;;;;;5052020;28;20096;-73
2021/07/06 05:33:17;;;;;;;6.25;2.88;;;18.80;99.90;;;;;;5051549;28;20434;-72
2021/07/06 05:35:43;;;;;;;4.03;2.63;;;18.90;99.90;;;;;;5051871;28;20028;-72
2021/07/06 05:38:09;;;;;;;4.78;2.58;;;18.90;99.90;;;;;;5052534;28;20311;-75
2021/07/06 05:40:38;;;;;;;6.85;2.72;;;19.00;99.90;;;;;;5051539;28;20359;-72
2021/07/06 05:43:09;;;;;;;6.43;2.40;;;19.10;99.90;;;;;;5052717;28;20412;-72
2021/07/06 05:45:35;;;;;;;4.95;2.50;;;19.10;99.90;;;;;;5049684;28;20099;-72
2021/07/06 05:48:02;;;;;;;4.15;1.95;;;19.20;99.90;;;;;;5052359;28;20090;-73
2021/07/06 05:50:27;;;;;;;2.97;2.08;;;19.30;99.90;;;;;;5052218;28;20037;-77
2021/07/06 05:52:56;;;;;;;4.35;1.60;;;19.40;99.90;;;;;;5052074;28;20446;-73
2021/07/06 05:55:22;;;;;;;2.67;1.50;;;19.50;99.90;;;;;;5051535;28;20060;-76
2021/07/06 05:57:47;;;;;;;3.72;1.20;;;19.80;99.90;;;;;;5051775;28;20641;-74
2021/07/06 06:00:15;;;;;;;4.35;1.90;;;19.90;99.90;;;;;;5052761;28;20474;-87
2021/07/06 06:02:40;;;;;;;4.32;1.70;;;20.10;99.90;;;;;;5049838;28;20037;-86
2021/07/06 06:05:08;;;;;;;9.15;2.03;;;20.30;99.90;;;;;;5053442;28;20032;-86
2021/07/06 06:07:43;;;;;;;5.97;2.70;;;20.40;99.90;;;;;;5051149;28;20120;-87
2021/07/06 06:10:11;;;;;;;11.60;3.20;;;20.60;98.90;;;;;;5051104;28;20043;-91
2021/07/06 06:12:38;;;;;;;25.42;5.35;;;20.80;97.90;;;;;;5051341;28;20375;-87
2021/07/06 06:15:05;;;;;;;7.85;2.67;;;21.00;98.20;;;;;;5050786;28;20037;-75
2021/07/06 06:17:31;;;;;;;7.60;3.30;;;21.10;97.20;;;;;;5047319;28;20048;-78
2021/07/06 06:19:57;;;;;;;2.30;1.63;;;21.20;96.80;;;;;;5051618;28;20033;-66
2021/07/06 06:22:23;;;;;;;3.40;1.42;;;21.30;96.00;;;;;;5052207;28;20425;-67
2021/07/06 06:24:48;;;;;;;5.47;1.50;;;21.40;94.80;;;;;;5049861;28;20035;-66
2021/07/06 06:27:15;;;;;;;1.55;1.30;;;21.40;93.80;;;;;;5051968;28;20407;-66
2021/07/06 06:29:49;;;;;;;1.50;1.40;;;21.50;94.00;;;;;;5051382;28;20438;-66
2021/07/06 06:32:24;;;;;;;4.10;1.77;;;21.60;94.00;;;;;;5047419;28;20037;-66
2021/07/06 06:34:51;;;;;;;2.63;1.70;;;21.80;93.70;;;;;;5049833;28;20060;-66
2021/07/06 06:37:17;;;;;;;2.85;1.67;;;21.90;93.10;;;;;;5050698;28;20041;-66
2021/07/06 06:39:43;;;;;;;3.08;1.65;;;22.10;92.60;;;;;;5052303;28;20025;-65
2021/07/06 06:42:09;;;;;;;2.08;1.40;;;22.30;92.00;;;;;;5051116;28;20055;-66
2021/07/06 06:44:35;;;;;;;4.65;2.28;;;22.40;91.50;;;;;;5050581;28;20055;-66
2021/07/06 06:47:00;;;;;;;10.13;2.28;;;22.50;91.30;;;;;;5051951;28;20044;-66
2021/07/06 06:49:26;;;;;;;4.38;1.33;;;22.60;90.80;;;;;;5051669;28;20044;-66
2021/07/06 06:51:52;;;;;;;2.58;1.10;;;22.80;88.90;;;;;;5050254;28;20021;-66
2021/07/06 06:54:18;;;;;;;3.33;1.20;;;22.90;88.80;;;;;;5051079;28;20045;-66
2021/07/06 06:56:44;;;;;;;1.40;1.10;;;23.00;88.50;;;;;;5050868;28;20032;-66
2021/07/06 06:59:10;;;;;;;1.95;0.80;;;23.10;86.70;;;;;;5051045;28;20017;-65
2021/07/06 07:01:39;;;;;;;1.98;0.93;;;23.20;85.50;;;;;;5050156;28;20074;-66
2021/07/06 07:04:06;;;;;;;4.28;1.17;;;23.30;84.90;;;;;;5042569;28;20033;-66
2021/07/06 07:06:34;;;;;;;1.70;0.80;;;23.60;81.20;;;;;;5050277;28;20474;-67
2021/07/06 07:09:01;;;;;;;4.85;1.35;;;23.70;80.50;;;;;;5050754;28;20474;-66
2021/07/06 07:11:26;;;;;;;1.20;0.80;;;23.80;79.90;;;;;;5050705;28;20390;-66
2021/07/06 07:13:52;;;;;;;1.65;0.70;;;23.90;78.30;;;;;;5050198;28;20029;-65
2021/07/06 07:16:18;;;;;;;2.92;0.93;;;24.10;78.00;;;;;;5049606;28;20127;-66
2021/07/06 07:18:44;;;;;;;6.75;0.70;;;24.20;77.90;;;;;;5048970;28;20029;-66
2021/07/06 07:21:10;;;;;;;1.55;0.80;;;24.40;76.40;;;;;;5050335;28;20021;-66
2021/07/06 07:23:37;;;;;;;2.50;1.02;;;24.60;75.60;;;;;;5049373;28;20068;-66
2021/07/06 07:26:04;;;;;;;0.80;0.80;;;24.70;75.00;;;;;;5051676;28;20069;-66
2021/07/06 07:28:29;;;;;;;0.77;0.70;;;24.70;74.00;;;;;;5053311;28;20037;-66
2021/07/06 07:30:55;;;;;;;1.95;0.90;;;24.80;73.80;;;;;;5053737;28;20021;-66
2021/07/06 07:33:21;;;;;;;2.53;0.77;;;24.90;73.50;;;;;;5053869;28;20074;-66
2021/07/06 07:35:46;;;;;;;3.35;0.60;;;24.90;73.60;;;;;;5054411;28;20033;-64
2021/07/06 07:38:12;;;;;;;0.85;0.85;;;25.00;72.50;;;;;;5054994;28;20120;-64
2021/07/06 07:40:38;;;;;;;2.20;0.73;;;25.20;72.50;;;;;;5053443;28;20425;-64
2021/07/06 07:43:07;;;;;;;2.38;0.70;;;25.30;71.80;;;;;;5054179;28;20039;-64
2021/07/06 07:45:34;;;;;;;1.60;0.77;;;25.40;71.70;;;;;;5054704;28;20024;-65
2021/07/06 07:48:00;;;;;;;0.80;0.57;;;25.50;71.30;;;;;;5055026;28;20041;-64
2021/07/06 07:50:26;;;;;;;1.55;0.75;;;25.70;71.40;;;;;;5053568;28;20111;-64
2021/07/06 07:52:51;;;;;;;1.58;0.73;;;25.80;70.90;;;;;;5053226;28;20459;-64
2021/07/06 07:55:17;;;;;;;2.00;0.90;;;26.10;70.50;;;;;;5047120;28;20049;-65
2021/07/06 07:57:43;;;;;;;2.05;0.80;;;26.20;69.30;;;;;;5055033;28;20021;-64
2021/07/06 08:00:09;;;;;;;2.30;0.90;;;26.30;68.30;;;;;;5054492;28;20040;-64
2021/07/06 08:02:35;;;;;;;1.88;0.80;;;26.40;67.50;;;;;;5052573;28;20071;-65
2021/07/06 08:05:01;;;;;;;1.20;0.82;;;26.40;67.00;;;;;;5052558;28;20051;-64
2021/07/06 08:07:27;;;;;;;2.65;0.98;;;26.30;67.20;;;;;;5053926;28;20478;-64
2021/07/06 08:09:53;;;;;;;4.15;0.88;;;26.10;67.60;;;;;;5053123;28;20071;-65
2021/07/06 08:12:19;;;;;;;1.98;1.17;;;26.10;68.90;;;;;;5053953;28;20057;-64
2021/07/06 08:14:44;;;;;;;2.38;0.80;;;26.10;69.00;;;;;;5052857;28;20108;-65
2021/07/06 08:17:10;;;;;;;2.28;0.80;;;26.10;68.40;;;;;;5052489;28;20116;-65
2021/07/06 08:19:36;;;;;;;3.65;0.75;;;26.00;68.70;;;;;;5053282;28;20048;-66
2021/07/06 08:22:02;;;;;;;3.65;0.82;;;26.10;68.40;;;;;;5053142;28;20029;-65
2021/07/06 08:24:28;;;;;;;1.55;0.82;;;26.20;68.90;;;;;;5053547;28;20033;-64
2021/07/06 08:26:53;;;;;;;3.33;0.95;;;26.30;69.00;;;;;;5052639;28;20036;-65
2021/07/06 08:29:19;;;;;;;3.72;1.10;;;26.30;67.80;;;;;;5053807;28;20071;-64
2021/07/06 08:31:45;;;;;;;6.60;1.25;;;26.50;68.40;;;;;;5052549;28;20111;-64
2021/07/06 08:34:10;;;;;;;2.67;1.05;;;26.70;68.00;;;;;;5052929;28;20060;-64
2021/07/06 08:36:36;;;;;;;0.75;0.63;;;26.90;67.70;;;;;;5051158;28;20557;-66
2021/07/06 08:39:03;;;;;;;1.75;0.90;;;27.00;66.80;;;;;;5051724;28;20037;-65
2021/07/06 08:41:29;;;;;;;3.35;1.20;;;27.20;65.90;;;;;;5053322;28;20033;-65
2021/07/06 08:43:54;;;;;;;4.05;1.02;;;27.40;64.80;;;;;;5051892;28;20383;-65
2021/07/06 08:46:21;;;;;;;5.18;0.90;;;27.50;63.60;;;;;;5052044;28;20371;-65
2021/07/06 08:48:48;;;;;;;3.10;0.82;;;27.60;63.20;;;;;;5053193;28;20464;-65
2021/07/06 08:51:18;;;;;;;4.00;1.05;;;27.70;62.70;;;;;;5052902;28;20033;-65
2021/07/06 08:53:44;;;;;;;3.58;1.02;;;27.70;63.00;;;;;;5053177;28;20071;-64
2021/07/06 08:56:10;;;;;;;5.32;0.70;;;27.70;62.60;;;;;;5051979;28;20041;-64
2021/07/06 08:58:35;;;;;;;3.05;0.93;;;27.50;63.00;;;;;;5052433;28;20033;-64
2021/07/06 09:01:02;;;;;;;0.73;0.73;;;27.40;63.90;;;;;;5050214;28;20033;-65
2021/07/06 09:03:58;;;;;;;2.58;0.90;;;27.40;64.10;;;;;;5052909;28;20046;-65
2021/07/06 09:06:28;;;;;;;0.77;0.70;;;27.70;63.90;;;;;;5052760;28;20045;-65
2021/07/06 09:09:19;;;;;;;1.90;1.00;;;28.00;62.80;;;;;;5052125;28;20031;-65
2021/07/06 09:11:47;;;;;;;3.22;0.90;;;28.30;62.30;;;;;;5052346;28;20518;-65
2021/07/06 09:14:13;;;;;;;2.70;0.73;;;28.30;62.00;;;;;;5053012;28;20029;-65
2021/07/06 09:16:39;;;;;;;0.68;0.68;;;28.00;62.00;;;;;;5052507;28;20029;-65
2021/07/06 09:19:19;;;;;;;3.72;0.80;;;27.80;63.20;;;;;;5052335;28;20029;-65
2021/07/06 09:21:45;;;;;;;1.45;0.77;;;27.70;63.00;;;;;;5052667;28;20021;-65
2021/07/06 09:24:25;;;;;;;1.17;0.73;;;27.60;62.80;;;;;;5051453;28;20512;-66
2021/07/06 09:26:52;;;;;;;4.13;1.30;;;27.40;63.00;;;;;;5051186;28;20036;-66
2021/07/06 09:29:24;;;;;;;2.22;1.35;;;27.30;63.40;;;;;;5051392;28;20067;-66
2021/07/06 09:31:50;;;;;;;9.98;1.73;;;27.10;64.50;;;;;;5050763;28;20036;-66
2021/07/06 09:34:15;;;;;;;8.30;1.73;;;26.50;68.30;;;;;;5052158;28;20033;-65
2021/07/06 09:36:50;;;;;;;6.45;1.60;;;25.80;70.40;;;;;;5052878;28;20496;-65
2021/07/06 09:39:21;;;;;;;6.32;1.70;;;25.20;72.30;;;;;;5052360;28;20041;-65
2021/07/06 09:42:14;;;;;;;6.40;1.48;;;24.70;73.80;;;;;;5052014;28;20029;-65
2021/07/06 09:45:01;;;;;;;5.15;1.15;;;24.40;73.90;;;;;;5051296;28;20056;-65
2021/07/06 09:47:26;;;;;;;1.20;0.65;;;24.20;75.00;;;;;;5051472;28;20392;-65
2021/07/06 09:49:59;;;;;;;3.42;1.20;;;23.90;75.10;;;;;;5050990;28;20111;-66
2021/07/06 09:52:25;;;;;;;3.80;0.75;;;23.80;75.20;;;;;;5051405;28;20377;-65
2021/07/06 09:54:54;;;;;;;4.00;1.05;;;23.70;76.00;;;;;;5051618;28;20041;-65
2021/07/06 09:57:24;;;;;;;3.25;0.82;;;23.50;76.70;;;;;;5051900;28;20091;-65
2021/07/06 10:00:11;;;;;;;3.85;1.25;;;23.60;76.30;;;;;;5051317;28;20470;-65
2021/07/06 10:02:38;;;;;;;1.30;0.73;;;23.60;76.20;;;;;;5051548;28;20033;-65
2021/07/06 10:05:25;;;;;;;5.45;0.70;;;23.60;76.70;;;;;;5050613;28;20029;-65
2021/07/06 10:07:50;;;;;;;4.75;0.68;;;23.60;77.30;;;;;;5050491;28;20052;-65
2021/07/06 10:10:16;;;;;;;2.28;0.70;;;23.80;77.30;;;;;;5051120;28;20033;-66
2021/07/06 10:12:47;;;;;;;5.57;0.60;;;24.00;76.70;;;;;;5051542;28;20772;-65
2021/07/06 10:15:15;;;;;;;1.55;0.68;;;24.10;76.00;;;;;;5050576;28;20032;-66
2021/07/06 10:17:41;;;;;;;3.33;1.00;;;24.30;76.50;;;;;;5051777;28;20036;-65
2021/07/06 10:20:13;;;;;;;2.47;0.70;;;24.40;75.90;;;;;;5050452;28;20059;-65
2021/07/06 10:22:39;;;;;;;3.50;0.57;;;24.40;74.80;;;;;;5051845;28;20103;-65
2021/07/06 10:25:10;;;;;;;2.15;0.80;;;24.40;75.50;;;;;;5050783;28;20083;-65
2021/07/06 10:27:40;;;;;;;;;;;24.30;73.90;;;;;;5051876;28;20474;-65
2021/07/06 10:30:19;;;;;;;0.52;0.50;;;24.10;74.90;;;;;;5050841;28;19908;-65
2021/07/06 10:32:50;;;;;;;1.95;0.52;;;23.90;76.00;;;;;;5051829;28;20421;-65
2021/07/06 10:35:16;;;;;;;0.70;0.50;;;23.80;76.10;;;;;;5050748;28;20047;-65
2021/07/06 10:37:43;;;;;;;1.10;0.80;;;23.80;77.90;;;;;;5051543;28;20495;-65
2021/07/06 10:40:42;;;;;;;0.82;0.55;;;23.80;77.10;;;;;;5050503;28;20060;-65
2021/07/06 10:43:07;;;;;;;1.73;0.68;;;24.00;77.80;;;;;;5047146;28;20104;-65
2021/07/06 10:45:34;;;;;;;1.67;0.68;;;24.20;77.60;;;;;;5051434;28;20120;-65
2021/07/06 10:48:00;;;;;;;0.60;0.60;;;24.40;76.30;;;;;;5049863;28;20043;-65
2021/07/06 10:50:32;;;;;;;1.85;0.80;;;24.40;77.00;;;;;;5051098;28;20037;-65
2021/07/06 10:53:24;;;;;;;2.47;0.70;;;24.40;77.00;;;;;;5050624;28;20033;-65
2021/07/06 10:56:08;;;;;;;2.03;0.45;;;24.40;78.00;;;;;;5050848;28;20060;-65
2021/07/06 10:59:04;;;;;;;1.77;0.70;;;24.30;77.80;;;;;;5051227;28;20477;-65
2021/07/06 11:01:36;;;;;;;0.70;0.50;;;24.20;79.50;;;;;;5049611;28;20068;-65
2021/07/06 11:04:10;;;;;;;0.80;0.63;;;24.10;78.90;;;;;;5049704;28;21896;-65
2021/07/06 11:06:47;;;;;;;0.80;0.50;;;24.20;77.90;;;;;;5050965;28;20131;-65
2021/07/06 11:09:13;;;;;;;4.78;0.75;;;24.30;78.40;;;;;;5050049;28;20450;-65
2021/07/06 11:11:39;;;;;;;3.45;0.77;;;24.30;79.20;;;;;;5050743;28;20029;-65
2021/07/06 11:14:18;;;;;;;1.55;0.80;;;24.40;79.30;;;;;;5050283;28;20029;-65
2021/07/06 11:16:54;;;;;;;2.95;0.77;;;24.50;78.50;;;;;;5049552;28;20033;-65
2021/07/06 11:19:33;;;;;;;4.45;1.00;;;24.60;79.30;;;;;;5050511;28;20076;-65
2021/07/06 11:22:09;;;;;;;2.40;0.68;;;24.70;77.00;;;;;;5049835;28;20087;-66
2021/07/06 11:24:40;;;;;;;4.35;0.80;;;24.90;76.30;;;;;;5050624;28;20120;-66
2021/07/06 11:27:06;;;;;;;2.45;0.85;;;25.00;76.00;;;;;;5049563;28;20590;-66
2021/07/06 11:29:40;;;;;;;0.55;0.50;;;25.30;75.00;;;;;;5050874;28;20379;-65
2021/07/06 11:32:05;;;;;;;1.42;0.73;;;25.50;74.60;;;;;;5049336;28;20024;-66
2021/07/06 11:34:35;;;;;;;1.08;0.73;;;25.60;72.10;;;;;;5050720;28;20102;-65
2021/07/06 11:37:11;;;;;;;2.75;0.60;;;25.90;72.00;;;;;;5050055;28;20044;-65
2021/07/06 11:39:37;;;;;;;1.70;0.57;;;25.90;71.90;;;;;;5050574;28;20094;-68
2021/07/06 11:42:06;;;;;;;3.70;0.60;;;25.90;71.00;;;;;;5049508;28;20036;-66
2021/07/06 11:44:32;;;;;;;3.03;0.40;;;26.00;70.20;;;;;;5050330;28;20462;-65
2021/07/06 11:47:12;;;;;;;3.13;0.32;;;25.80;70.20;;;;;;5044013;28;20037;-66
2021/07/06 11:49:38;;;;;;;;;;;25.60;71.30;;;;;;5051302;28;20422;-65
2021/07/06 11:52:04;;;;;;;1.90;0.50;;;25.50;71.50;;;;;;5049802;28;19959;-65
2021/07/06 11:54:29;;;;;;;1.42;0.50;;;25.40;72.10;;;;;;5050515;28;20045;-65
2021/07/06 11:57:08;;;;;;;0.43;0.40;;;25.20;72.50;;;;;;5049772;28;20040;-65
2021/07/06 11:59:35;;;;;;;0.75;0.50;;;24.90;72.40;;;;;;5049778;28;20044;-65
2021/07/06 12:02:11;;;;;;;1.15;0.90;;;24.60;74.40;;;;;;5042350;28;20028;-66
2021/07/06 12:04:37;;;;;;;0.50;0.50;;;24.30;76.20;;;;;;5051007;28;20079;-65
2021/07/06 12:07:05;;;;;;;1.30;0.47;;;24.10;78.20;;;;;;5050161;28;20482;-65
2021/07/06 12:09:30;;;;;;;0.90;0.60;;;23.90;78.90;;;;;;5050437;28;20029;-65
2021/07/06 12:12:13;;;;;;;4.57;0.63;;;23.80;80.50;;;;;;5050370;28;20584;-65
2021/07/06 12:14:57;;;;;;;1.30;0.40;;;23.90;80.30;;;;;;5054093;28;20064;-65
2021/07/06 12:17:27;;;;;;;2.10;0.60;;;24.00;79.50;;;;;;5051320;28;20047;-65
2021/07/06 12:19:53;;;;;;;;;;;24.20;79.20;;;;;;5046204;28;20084;-65
2021/07/06 12:22:20;;;;;;;0.35;0.35;;;24.50;77.90;;;;;;5053101;28;20002;-65
2021/07/06 12:24:46;;;;;;;0.30;0.30;;;25.00;75.00;;;;;;5053963;28;20025;-65
2021/07/06 12:27:15;;;;;;;3.53;0.45;;;25.30;74.00;;;;;;5052906;28;20036;-65
2021/07/06 12:29:41;;;;;;;0.75;0.60;;;25.40;73.80;;;;;;5054066;28;20493;-66
2021/07/06 12:32:14;;;;;;;1.85;0.50;;;25.60;72.50;;;;;;5053033;28;20029;-65
2021/07/06 12:34:43;;;;;;;3.28;0.43;;;25.50;72.10;;;;;;5047013;28;20078;-65
2021/07/06 12:37:12;;;;;;;1.02;0.55;;;25.50;72.80;;;;;;5052562;28;20040;-65
2021/07/06 12:39:41;;;;;;;3.70;0.40;;;25.40;71.60;;;;;;5053688;28;20056;-65
2021/07/06 12:42:08;;;;;;;0.40;0.40;;;25.30;72.40;;;;;;5044973;28;20109;-65
2021/07/06 12:44:39;;;;;;;0.38;0.30;;;25.10;72.80;;;;;;5053858;28;20044;-65
2021/07/06 12:47:22;;;;;;;0.60;0.30;;;25.00;73.10;;;;;;5050907;28;20116;-65
2021/07/06 12:50:12;;;;;;;1.35;0.50;;;24.90;73.90;;;;;;5047255;28;20060;-65
2021/07/06 12:52:43;;;;;;;3.80;2.53;;;24.80;74.00;;;;;;5044240;28;20364;-65
2021/07/06 12:55:17;;;;;;;2.47;2.03;;;24.80;74.50;;;;;;5052825;28;20064;-65